Stations météo

réclame
Mon MeteoGroup
Zinnwald-Georgenfeld, Allemagne (10582): Température de l'air & dewpoint: 16.06.2018 19:00:00 - 22.06.2018 19:00:00 (CEST)Zinnwald-Georgenfeld, Allemagne (10582): Température de l'air 5cm & Température de l'air -5cm: 16.06.2018 19:00:00 - 22.06.2018 19:00:00 (CEST)Zinnwald-Georgenfeld, Allemagne (10582): Température de l'air -20cm & Température de l'air -100cm: 16.06.2018 19:00:00 - 22.06.2018 19:00:00 (CEST)Zinnwald-Georgenfeld, Allemagne (10582): Vitesse du vent & gusts: 16.06.2018 19:00:00 - 22.06.2018 19:00:00 (CEST)Zinnwald-Georgenfeld, Allemagne (10582): Direction du vent: 16.06.2018 19:00:00 - 22.06.2018 19:00:00 (CEST)Zinnwald-Georgenfeld, Allemagne (10582): visibility: 16.06.2018 19:00:00 - 22.06.2018 19:00:00 (CEST)Zinnwald-Georgenfeld, Allemagne (10582): Ensoleillement: 16.06.2018 19:00:00 - 22.06.2018 19:00:00 (CEST)Zinnwald-Georgenfeld, Allemagne (10582): Quantités de précipitations: 16.06.2018 19:00:00 - 22.06.2018 19:00:00 (CEST)
Date & Time tt [°C] td [°C] tt 5cm [°C] tt -5cm [°C] tt -20cm [°C] tt -100cm [°C] ff [km/h] ff [knt] fx [km/h] fx [knt] dd vv [km] sd [min] rr [mm]
22.06.2018 19:00:00 7,8 5,4 8,0 12,9 14,0 14,3 17 9 41 22 NW 29 33 2,0
22.06.2018 18:00:00 7,8 4,8 8,1 13,6 13,9 14,3 18 10 36 20 WNW 47 11 0,0
22.06.2018 17:00:00 8,0 5,3 8,6 14,1 13,9 14,3 19 10 42 23 WNW 52 9 0,0
22.06.2018 16:00:00 6,5 4,9 6,5 12,8 13,8 14,3 19 11 40 21 WNW 23 2 0,0
22.06.2018 15:00:00 6,2 4,8 6,9 13,1 13,7 14,2 21 11 47 25 WNW 43 1 0,0
22.06.2018 14:00:00 6,0 5,1 7,3 12,0 13,8 14,2 18 10 40 21 WNW 10 0 0,2
22.06.2018 13:00:00 5,9 4,8 6,9 11,7 13,8 14,2 15 8 31 17 W 19 0 0,6
22.06.2018 12:00:00 5,8 4,0 6,5 11,8 13,9 14,2 23 12 39 21 W 25 0 0,3
22.06.2018 11:00:00 5,1 3,1 5,3 10,4 14,0 14,2 16 8 32 17 W 40 0 0,1
22.06.2018 10:00:00 4,8 3,3 5,2 10,7 14,1 14,2 16 9 35 19 W 9 0 0,0
22.06.2018 09:00:00 5,2 2,4 6,2 10,7 14,3 14,2 18 10 40 22 W 67 0 0,0
22.06.2018 08:00:00 4,7 2,5 5,2 10,0 14,5 14,2 20 11 41 22 W 52 0 0,0
22.06.2018 07:00:00 4,6 2,5 5,2 9,9 14,8 14,1 16 8 42 23 W 38 2 0,0
22.06.2018 06:00:00 4,7 2,5 4,8 9,4 15,2 14,1 22 12 46 25 WNW 44 0 0,0
22.06.2018 05:00:00 5,0 2,9 5,1 9,5 15,6 14,1 19 11 39 21 WNW 54 0 0,0
22.06.2018 04:00:00 5,0 3,3 5,2 9,3 16,2 14,1 14 7 26 14 NW 44 0 0,0
22.06.2018 03:00:00 4,5 2,9 3,7 9,0 16,8 14,1 16 9 37 20 NW 39 0 0,0
22.06.2018 02:00:00 5,0 2,7 4,3 9,6 17,5 14,1 23 12 41 22 NNW 62 0 0,0
22.06.2018 01:00:00 5,5 2,2 4,7 10,5 18,3 14,1 22 12 42 23 NW 70 0 0,0
22.06.2018 00:00:00 6,4 2,1 5,5 11,6 19,1 14,0 22 12 46 25 NW 70 0 0,0
21.06.2018 23:00:00 7,4 1,4 6,7 12,9 19,8 14,0 28 15 51 27 NNW 70 0 0,0
21.06.2018 22:00:00 8,2 1,9 7,6 14,6 20,5 14,0 31 17 49 27 NNW 70 0 0,0
21.06.2018 21:00:00 9,8 5,8 9,7 16,8 21,2 14,0 28 15 53 28 NNW 44 41 0,0
21.06.2018 20:00:00 10,9 7,8 12,0 18,3 21,9 14,0 29 16 58 31 NNW 28 32 0,0
21.06.2018 19:00:00 9,8 8,3 9,8 19,0 22,6 14,0 30 16 51 28 NNW 12 4 0,1
21.06.2018 18:00:00 11,3 8,7 11,2 21,0 23,1 14,0 27 15 48 26 NW 12 0 0,0
21.06.2018 17:00:00 12,5 8,8 13,1 24,2 23,3 14,0 29 16 54 29 NNW 48 0 0,0
21.06.2018 16:00:00 16,4 9,9 18,4 29,2 23,1 13,9 31 17 54 29 NW 18 38 0,0
21.06.2018 15:00:00 22,3 9,6 25,4 30,6 22,6 13,9 31 17 61 33 W 30 21 0,0
21.06.2018 14:00:00 22,4 11,8 23,8 31,8 21,9 13,9 29 15 60 33 W 50 43 0,0
21.06.2018 13:00:00 23,4 12,3 27,3 31,9 21,0 13,9 29 15 53 29 W 41 35 0,0
21.06.2018 12:00:00 23,4 14,1 28,5 32,1 20,1 13,9 31 17 50 27 SSW 33 46 0,0
21.06.2018 11:00:00 22,4 15,2 27,1 29,7 19,3 13,9 24 13 38 20 S 14 48 0,0
21.06.2018 10:00:00 20,8 14,3 23,0 25,4 18,7 13,9 19 10 37 20 S 23 38 0,0
21.06.2018 09:00:00 20,9 11,7 22,8 24,1 18,3 13,8 21 11 32 17 SW 9 60 0,0
21.06.2018 08:00:00 20,1 12,1 21,1 20,5 18,2 13,8 18 10 26 14 SW 19 60 0,0
21.06.2018 07:00:00 18,2 12,5 17,5 17,3 18,5 13,8 13 7 20 11 SW 48 60 0,0
21.06.2018 06:00:00 16,5 11,5 14,4 15,3 18,9 13,8 16 9 21 11 SW 52 29 0,0
21.06.2018 05:00:00 15,8 11,4 12,7 15,3 19,4 13,8 15 8 17 9 SW 40 0 0,0
21.06.2018 04:00:00 15,3 11,5 12,0 16,1 19,9 13,8 16 8 21 11 SW 34 0 0,0
21.06.2018 03:00:00 15,5 11,5 13,3 17,0 20,5 13,8 19 10 22 12 SSW 30 0 0,0
21.06.2018 02:00:00 16,4 11,8 14,4 18,0 21,0 13,8 16 9 24 13 S 32 0 0,0
21.06.2018 01:00:00 17,0 11,7 15,3 18,7 21,6 13,8 18 10 24 13 SSW 39 0 0,0
21.06.2018 00:00:00 17,7 11,7 16,0 19,5 22,2 13,8 20 11 26 14 S 39 0 0,0
20.06.2018 23:00:00 17,6 11,7 15,7 20,5 22,9 13,8 17 9 22 12 S 38 0 0,0
20.06.2018 22:00:00 18,0 11,7 16,0 22,0 23,5 13,8 16 9 21 11 S 42 0 0,0
20.06.2018 21:00:00 19,2 11,7 17,6 24,3 23,9 13,8 15 8 23 12 S 45 54 0,0
20.06.2018 20:00:00 21,1 11,6 21,9 27,6 24,0 13,8 15 8 22 12 S 27 57 0,0
20.06.2018 19:00:00 21,8 11,9 23,9 30,0 23,9 13,8 18 10 29 15 S 28 57 0,0
20.06.2018 18:00:00 22,2 11,9 24,8 32,4 23,5 13,8 19 10 31 17 S 21 60 0,0
20.06.2018 17:00:00 22,3 12,0 25,6 33,8 22,7 13,8 19 10 34 18 S 21 59 0,0
20.06.2018 16:00:00 22,3 11,2 27,3 35,0 21,7 13,7 21 12 32 18 SSW 21 59 0,0
20.06.2018 15:00:00 22,0 11,8 26,6 34,7 20,6 13,7 17 9 35 19 S 59 53 0,0
20.06.2018 14:00:00 21,8 12,1 28,0 33,2 19,6 13,7 20 11 35 19 SW 18 46 0,0
20.06.2018 13:00:00 19,9 12,2 22,9 30,8 18,6 13,7 17 9 30 16 SW 33 45 0,0
20.06.2018 12:00:00 19,4 13,4 23,5 29,2 17,6 13,7 17 9 29 16 S 27 53 0,0
20.06.2018 11:00:00 17,6 13,2 21,5 24,6 16,8 13,7 14 8 27 14 S 15 28 0,0
20.06.2018 10:00:00 17,8 13,2 21,4 24,3 16,1 13,7 16 9 26 14 S 11 51 0,0
20.06.2018 09:00:00 16,7 12,5 19,0 20,0 15,9 13,7 14 8 21 11 S 28 16 0,0
20.06.2018 08:00:00 14,9 12,9 15,6 16,4 15,9 13,7 5 3 11 6 ENE 8 13 0,0
20.06.2018 07:00:00 13,8 12,4 13,2 14,5 16,0 13,7 6 3 13 7 NNE 7 5 0,0
20.06.2018 06:00:00 13,4 12,0 11,9 13,8 16,3 13,7 8 5 19 10 ENE 7 23 0,0
20.06.2018 05:00:00 13,5 11,9 12,4 14,0 16,6 13,7 16 9 21 11 NNW 9 0 0,0
20.06.2018 04:00:00 13,6 11,7 12,8 14,2 16,9 13,7 15 8 21 11 NNW 16 0 0,0
20.06.2018 03:00:00 13,7 11,6 12,5 14,2 17,2 13,7 13 7 21 11 NW 22 0 0,0
20.06.2018 02:00:00 13,8 11,7 12,8 14,9 17,6 13,7 14 7 19 10 NNW 21 0 0,0
20.06.2018 01:00:00 13,6 11,5 11,6 14,9 18,0 13,7 9 5 16 9 NW 24 0 0,0
20.06.2018 00:00:00 14,0 11,4 12,3 15,8 18,5 13,7 11 6 16 9 NW 27 0 0,0
19.06.2018 23:00:00 14,4 11,3 13,1 16,7 18,9 13,7 12 6 16 9 NNW 29 0 0,0
19.06.2018 22:00:00 15,6 11,6 14,6 18,4 19,2 13,7 10 5 19 10 NNW 46 0 0,0
19.06.2018 21:00:00 16,4 11,4 16,0 19,7 19,4 13,7 13 7 22 12 NNW 44 0 0,0
19.06.2018 20:00:00 17,2 11,5 17,2 21,2 19,5 13,7 11 6 20 11 NNW 52 0 0,0
19.06.2018 19:00:00 18,0 11,3 18,2 23,1 19,3 13,7 13 7 26 14 NW 51 9 0,0
19.06.2018 18:00:00 18,0 11,9 19,2 24,1 19,0 13,7 14 7 29 16 NW 41 18 0,0
19.06.2018 17:00:00 18,1 12,3 20,3 24,5 18,7 13,7 15 8 27 14 WNW 22 9 0,0
19.06.2018 16:00:00 17,6 11,5 18,5 24,6 18,2 13,7 15 8 29 16 WNW 48 9 0,0
19.06.2018 15:00:00 18,2 11,8 20,7 24,8 17,6 13,7 13 7 31 17 WNW 23 9 0,0
19.06.2018 14:00:00 17,1 11,6 19,0 24,6 17,1 13,7 13 7 22 12 W 51 7 0,0
19.06.2018 13:00:00 16,8 11,9 19,9 23,1 16,5 13,7 15 8 25 14 WSW 23 6 0,0
19.06.2018 12:00:00 16,2 12,2 17,9 21,6 16,0 13,7 16 8 24 13 WSW 37 9 0,0
19.06.2018 11:00:00 15,8 12,2 18,1 19,9 15,5 13,7 13 7 22 12 W 29 10 0,0
19.06.2018 10:00:00 15,1 11,7 16,0 18,3 15,2 13,7 11 6 20 11 WNW 41 0 0,0
19.06.2018 09:00:00 14,9 11,4 16,2 17,6 14,9 13,7 10 5 22 12 W 40 9 0,0
19.06.2018 08:00:00 14,0 11,0 15,1 15,1 14,9 13,6 12 7 23 13 WSW 32 10 0,0
19.06.2018 07:00:00 13,2 10,0 13,1 13,6 15,1 13,6 13 7 23 12 W 31 60 0,0
19.06.2018 06:00:00 11,7 9,0 10,2 11,4 15,5 13,6 13 7 20 11 WNW 42 29 0,0
19.06.2018 05:00:00 11,2 8,6 8,9 11,4 15,8 13,6 11 6 15 8 W 38 0 0,0
19.06.2018 04:00:00 11,4 8,5 7,7 11,8 16,3 13,6 10 5 15 8 W 37 0 0,0
19.06.2018 03:00:00 12,4 9,0 9,5 12,5 16,7 13,6 12 7 14 8 W 39 0 0,0
19.06.2018 02:00:00 12,5 8,8 9,4 13,4 17,1 13,6 6 3 8 5 WSW 47 0 0,0
19.06.2018 01:00:00 12,8 8,8 8,7 14,1 17,6 13,6 6 4 16 8 SW 38 0 0,0
19.06.2018 00:00:00 13,3 8,7 11,4 14,2 18,1 13,6 13 7 16 9 NW 39 0 0,0
18.06.2018 23:00:00 12,9 8,6 8,7 15,0 18,6 13,6 10 6 13 7 WSW 39 0 0,0
18.06.2018 22:00:00 13,0 8,7 8,2 16,6 19,0 13,6 10 5 12 6 WSW 45 0 0,0
18.06.2018 21:00:00 15,1 9,1 13,1 19,2 19,2 13,6 5 3 16 9 W 57 10 0,0
18.06.2018 20:00:00 16,0 8,9 15,7 21,1 19,2 13,6 10 6 28 15 NW 60 23 0,0
18.06.2018 19:00:00 17,4 9,0 19,4 23,5 19,1 13,6 10 5 23 12 WNW 33 43 0,0
18.06.2018 18:00:00 16,1 8,5 17,2 23,1 18,8 13,6 13 7 25 14 WNW 47 0 0,0
18.06.2018 17:00:00 16,2 8,1 17,0 24,3 18,4 13,6 14 8 29 16 WNW 35 29 0,0
18.06.2018 16:00:00 16,6 7,9 19,1 24,3 18,0 13,6 14 7 28 15 NW 36 18 0,0
18.06.2018 15:00:00 15,1 8,4 16,9 21,1 17,9 13,6 9 5 24 13 NW 30 0 0,0
18.06.2018 14:00:00 15,4 9,6 16,4 22,4 17,5 13,5 11 6 24 13 NW 22 2 0,0
18.06.2018 13:00:00 15,3 9,1 17,0 21,6 17,2 13,5 12 7 19 10 NW 28 10 0,0
18.06.2018 12:00:00 14,1 9,4 14,5 19,3 17,0 13,5 12 6 19 10 NW 15 0 0,0
18.06.2018 11:00:00 15,3 9,7 16,2 21,6 16,5 13,5 6 3 16 8 N 23 16 0,0
18.06.2018 10:00:00 15,3 8,7 15,6 22,0 15,8 13,5 10 5 16 9 NW 38 43 0,0
18.06.2018 09:00:00 15,4 9,7 17,4 20,7 15,4 13,5 6 3 11 6 WNW 24 56 0,0
18.06.2018 08:00:00 14,1 8,4 15,5 17,0 15,4 13,5 8 5 16 9 NW 22 60 0,0
18.06.2018 07:00:00 12,7 8,8 11,9 13,5 15,6 13,5 9 5 16 8 WNW 29 60 0,0
18.06.2018 06:00:00 11,2 7,4 9,4 11,7 16,0 13,5 10 5 18 10 NNW 29 30 0,0
18.06.2018 05:00:00 10,9 7,7 9,2 11,8 16,5 13,5 16 8 20 11 NW 31 0 0,0
18.06.2018 04:00:00 11,6 7,4 9,7 12,6 16,9 13,5 14 8 20 11 NW 36 0 0,0
18.06.2018 03:00:00 12,2 7,3 11,0 13,3 17,3 13,5 16 8 22 12 N 45 0 0,0
18.06.2018 02:00:00 13,1 8,2 12,6 14,7 17,7 13,5 16 9 25 13 NNW 48 0 0,0
18.06.2018 01:00:00 13,4 8,7 13,1 15,0 18,2 13,5 16 8 25 13 NNW 50 0 0,0
18.06.2018 00:00:00 12,8 9,1 11,6 14,7 18,7 13,4 16 9 26 14 NNW 43 0 0,0
17.06.2018 23:00:00 13,0 9,4 12,1 15,7 19,3 13,4 16 9 25 13 NW 34 0 0,0
17.06.2018 22:00:00 13,5 10,5 12,7 17,3 19,8 13,4 14 8 27 14 NW 18 0 0,0
17.06.2018 21:00:00 13,6 11,5 12,9 18,6 20,3 13,4 16 9 26 14 NW 14 0 0,0
17.06.2018 20:00:00 14,7 11,8 14,6 20,7 20,6 13,4 13 7 30 16 WNW 29 0 0,0
17.06.2018 19:00:00 17,3 11,9 18,0 23,7 20,6 13,4 16 9 26 14 WNW 42 5 0,0
17.06.2018 18:00:00 17,0 11,0 17,8 24,8 20,6 13,4 10 5 22 12 WNW 65 13 0,0
17.06.2018 17:00:00 16,9 10,7 18,2 24,9 20,5 13,4 14 7 26 14 WNW 49 16 0,2
17.06.2018 16:00:00 16,8 12,6 17,5 26,2 20,1 13,4 13 7 37 20 WNW 21 9 0,0
17.06.2018 15:00:00 21,4 9,9 23,9 30,7 19,2 13,4 5 3 25 14 E 43 36 0,0
17.06.2018 14:00:00 21,2 10,2 25,5 28,4 18,4 13,4 13 7 28 15 W 19 13 0,0
17.06.2018 13:00:00 21,3 8,1 23,9 30,7 17,5 13,4 7 4 22 12 SW 24 35 0,0
17.06.2018 12:00:00 20,4 9,8 24,3 25,6 16,6 13,4 6 3 24 13 WSW 20 24 0,0
17.06.2018 11:00:00 20,0 9,0 23,8 24,4 15,8 13,4 10 5 24 13 W 20 37 0,0
17.06.2018 10:00:00 19,1 9,0 20,1 21,9 15,2 13,4 10 5 24 13 WNW 37 20 0,0
17.06.2018 09:00:00 19,2 10,4 22,1 19,3 14,9 13,4 15 8 23 12 SW 19 23 0,0
17.06.2018 08:00:00 16,7 8,9 16,9 15,4 14,8 13,4 15 8 19 10 SSW 36 1 0,0
17.06.2018 07:00:00 15,8 8,2 14,9 14,1 14,9 13,4 14 7 19 11 SSW 37 28 0,0
17.06.2018 06:00:00 14,2 7,8 12,4 12,2 15,1 13,4 15 8 18 10 SSW 28 0 0,0
17.06.2018 05:00:00 13,7 8,2 11,5 12,2 15,4 13,4 13 7 16 9 S 23 0 0,0
17.06.2018 04:00:00 14,0 8,0 11,1 12,3 15,8 13,4 14 7 19 10 S 25 0 0,0
17.06.2018 03:00:00 14,3 8,2 11,7 12,6 16,1 13,4 15 8 19 10 S 25 0 0,0
17.06.2018 02:00:00 13,8 7,6 10,9 12,5 16,6 13,4 13 7 15 8 S 27 0 0,0
17.06.2018 01:00:00 14,5 7,7 8,7 12,7 17,2 13,4 7 4 10 6 SSE 27 0 0,0
17.06.2018 00:00:00 14,8 7,8 8,7 13,4 17,8 13,4 9 5 12 7 SE 26 0 0,0
16.06.2018 23:00:00 15,3 6,2 8,3 14,4 18,4 13,4 3 2 5 3 SE 32 0 0,0
16.06.2018 22:00:00 15,9 5,7 9,0 15,8 18,9 13,4 4 2 8 4 SSW 38 0 0,0
16.06.2018 21:00:00 16,4 6,6 10,6 18,0 19,2 13,4 6 4 9 5 SW 37 34 0,0
16.06.2018 20:00:00 18,1 7,4 17,5 20,5 19,5 13,4 8 5 13 7 S 35 40 0,0
16.06.2018 19:00:00 18,2 7,0 17,5 21,4 19,5 13,4 8 4 11 6 SE 30 14 0,0

tt = Température de l'air
td = dewpoint
tt 5cm = Température de l'air 5cm
tt -5cm = Température de l'air -5cm
tt -20cm = Température de l'air -20cm
tt -100cm = Température de l'air -100cm
ff = Vitesse du vent
fx = gusts
dd = Direction du vent
vv = visibility
sd = Ensoleillement
rr = Quantités de précipitations

stations d'obs. à proximité